Time;durP1;ratioP1;P1;durP2;ratioP2;P2;SDS_P1;SDS_P2;PMS_P1;PMS_P2;Temp;Humidity;BMP_temperature;BMP_pressure;BME280_temperature;BME280_humidity;BME280_pressure;Samples;Min_cycle;Max_cycle;Signal;HPM_P1;HPM_P2
2024/04/04 00:00:12;;;;;;;;;9.00;6.00;;;;;-0.16;90.01;100140.27;113304;225;40102;-55
2024/04/04 00:03:08;;;;;;;;;7.00;6.00;;;;;-0.17;90.22;100143.74;113391;223;40826;-55
2024/04/04 00:05:49;;;;;;;;;5.00;5.00;;;;;-0.16;90.27;100140.14;113142;227;169347;-57
2024/04/04 00:08:31;;;;;;;;;7.00;6.00;;;;;-0.16;90.28;100141.30;113355;223;40138;-57
2024/04/04 00:11:22;;;;;;;;;6.00;5.00;;;;;-0.16;90.28;100141.18;113122;223;169167;-57
2024/04/04 00:14:00;;;;;;;;;6.50;5.00;;;;;-0.21;90.38;100147.21;113336;227;40191;-56
2024/04/04 00:16:45;;;;;;;;;6.00;4.00;;;;;-0.23;90.41;100145.83;113150;224;169291;-55
2024/04/04 00:19:30;;;;;;;;;7.00;5.00;;;;;-0.21;90.57;100147.41;113298;227;40585;-57
2024/04/04 00:22:07;;;;;;;;;9.00;5.00;;;;;-0.22;90.56;100147.16;113124;227;169202;-56
2024/04/04 00:24:48;;;;;;;;;8.00;7.00;;;;;-0.24;90.60;100150.89;113251;227;40217;-56
2024/04/04 00:27:31;;;;;;;;;5.00;4.00;;;;;-0.27;90.68;100151.85;113292;223;40409;-56
2024/04/04 00:30:12;;;;;;;;;9.00;8.00;;;;;-0.25;90.68;100149.48;113259;225;39782;-57
2024/04/04 00:32:53;;;;;;;;;5.00;5.00;;;;;-0.30;90.62;100149.05;113318;225;39884;-57
2024/04/04 00:35:28;;;;;;;;;8.00;6.00;;;;;-0.32;90.69;100150.52;113088;224;169704;-56
2024/04/04 00:38:04;;;;;;;;;6.00;5.00;;;;;-0.33;90.75;100153.92;113308;223;40535;-56
2024/04/04 00:40:50;;;;;;;;;7.00;5.00;;;;;-0.33;90.97;100149.31;113168;224;169409;-57
2024/04/04 00:43:31;;;;;;;;;5.33;4.00;;;;;-0.29;91.12;100147.61;113331;227;39892;-57
2024/04/04 00:46:12;;;;;;;;;4.00;4.00;;;;;-0.29;91.09;100144.58;113220;223;170961;-56
2024/04/04 00:48:52;;;;;;;;;4.00;3.00;;;;;-0.32;91.08;100146.94;113431;223;41220;-56
2024/04/04 00:51:31;;;;;;;;;6.00;5.00;;;;;-0.34;91.09;100151.35;113348;223;40237;-56
2024/04/04 00:54:17;;;;;;;;;6.00;5.00;;;;;-0.36;91.19;100147.12;113155;224;169119;-57
2024/04/04 00:56:55;;;;;;;;;5.00;4.00;;;;;-0.36;91.26;100148.17;113296;227;40951;-57
2024/04/04 00:59:40;;;;;;;;;7.00;5.00;;;;;-0.44;91.13;100146.52;113110;227;169218;-57
2024/04/04 01:02:21;;;;;;;;;6.00;5.00;;;;;-0.47;91.19;100147.51;113308;223;40339;-57
2024/04/04 01:05:00;;;;;;;;;6.00;4.00;;;;;-0.48;91.20;100144.88;113139;224;169170;-56
2024/04/04 01:07:45;;;;;;;;;3.00;3.00;;;;;-0.50;91.33;100143.99;113281;223;41237;-55
2024/04/04 01:10:28;;;;;;;;;7.00;5.00;;;;;-0.48;91.28;100148.66;113167;227;169314;-57
2024/04/04 01:13:07;;;;;;;;;5.00;4.00;;;;;-0.48;91.35;100150.19;113283;227;41139;-57
2024/04/04 01:15:47;;;;;;;;;7.00;4.50;;;;;-0.48;91.43;100152.70;113324;223;40546;-57
2024/04/04 01:24:57;;;;;;;;;7.00;6.00;;;;;-0.48;91.73;100148.80;113320;225;41288;-57
2024/04/04 01:27:36;;;;;;;;;4.00;3.00;;;;;-0.48;91.79;100147.27;113410;225;41280;-57
2024/04/04 01:30:12;;;;;;;;;5.50;4.00;;;;;-0.46;91.87;100150.58;113163;227;169674;-58
2024/04/04 01:32:52;;;;;;;;;5.50;4.00;;;;;-0.47;91.92;100143.77;113397;227;40288;-57
2024/04/04 01:35:26;;;;;;;;;5.00;4.00;;;;;-0.48;91.94;100147.21;113118;224;169228;-56
2024/04/04 01:38:02;;;;;;;;;7.00;5.00;;;;;-0.45;92.06;100140.98;113279;223;41848;-57
2024/04/04 01:40:41;;;;;;;;;6.00;5.00;;;;;-0.41;92.13;100140.58;113082;224;169283;-56
2024/04/04 01:43:16;;;;;;;;;4.00;4.00;;;;;-0.37;92.24;100143.44;113299;224;40222;-56
2024/04/04 01:45:54;;;;;;;;;5.00;4.00;;;;;-0.34;92.15;100145.18;113175;223;169606;-59
2024/04/04 01:48:40;;;;;;;;;5.00;4.00;;;;;-0.37;92.23;100141.91;113366;223;40577;-58
2024/04/04 01:51:22;;;;;;;;;6.00;4.00;;;;;-0.36;92.29;100147.66;113287;227;40749;-58
2024/04/04 01:53:58;;;;;;;;;7.00;5.00;;;;;-0.36;92.30;100144.82;113155;227;169336;-58
2024/04/04 01:56:34;;;;;;;;;7.00;6.00;;;;;-0.31;92.49;100146.38;113303;223;41480;-58
2024/04/04 01:59:14;;;;;;;;;6.00;4.00;;;;;-0.31;92.56;100146.34;113143;223;169304;-58
2024/04/04 02:01:52;;;;;;;;;6.50;5.00;;;;;-0.30;92.58;100146.61;113392;223;40535;-59
2024/04/04 02:04:27;;;;;;;;;5.00;4.00;;;;;-0.32;92.54;100144.79;113192;224;169279;-57
2024/04/04 02:07:05;;;;;;;;;8.00;6.00;;;;;-0.27;92.61;100146.90;113343;225;40513;-58
2024/04/04 02:09:40;;;;;;;;;5.00;4.00;;;;;-0.27;92.63;100145.84;113422;225;41558;-57
2024/04/04 02:12:16;;;;;;;;;9.00;7.00;;;;;-0.27;92.79;100142.98;113363;225;41506;-56
2024/04/04 02:14:53;;;;;;;;;7.00;5.00;;;;;-0.26;92.65;100136.36;113412;225;41581;-56
2024/04/04 02:17:30;;;;;;;;;5.00;3.50;;;;;-0.25;92.81;100137.68;113162;225;169175;-56
2024/04/04 02:20:11;;;;;;;;;3.00;3.00;;;;;-0.22;92.79;100135.30;113305;225;40484;-57
2024/04/04 02:22:58;;;;;;;;;6.00;4.00;;;;;-0.22;92.83;100130.86;113086;224;169136;-57
2024/04/04 02:25:37;;;;;;;;;8.00;6.00;;;;;-0.19;92.89;100131.91;113256;224;40266;-56
2024/04/04 02:28:21;;;;;;;;;4.00;3.00;;;;;-0.18;93.03;100132.65;113087;224;169327;-55
2024/04/04 02:30:55;;;;;;;;;5.00;4.00;;;;;-0.14;93.08;100130.55;113363;227;41819;-59
2024/04/04 02:33:31;;;;;;;;;4.00;3.00;;;;;-0.09;93.09;100136.35;113335;227;41859;-56
2024/04/04 02:36:06;;;;;;;;;5.00;4.00;;;;;-0.05;93.24;100135.29;113076;224;168914;-57
2024/04/04 02:38:43;;;;;;;;;4.00;3.00;;;;;-0.01;93.24;100133.36;113269;225;39710;-57
2024/04/04 02:41:23;;;;;;;;;7.00;6.00;;;;;-0.03;93.27;100127.52;113146;224;169183;-58
2024/04/04 02:44:01;;;;;;;;;9.00;7.00;;;;;-0.00;93.37;100123.20;113349;225;40776;-56
2024/04/04 02:46:40;;;;;;;;;9.50;6.00;;;;;0.01;93.46;100118.84;113116;225;169245;-56
2024/04/04 02:49:24;;;;;;;;;5.00;5.00;;;;;0.05;93.37;100116.19;113341;225;41840;-56
2024/04/04 02:52:06;;;;;;;;;5.00;4.00;;;;;0.07;93.50;100113.38;113200;225;169342;-56
2024/04/04 02:54:46;;;;;;;;;4.00;4.00;;;;;0.10;93.61;100109.80;113331;225;40109;-56
2024/04/04 02:57:24;;;;;;;;;5.00;4.00;;;;;0.14;93.63;100114.69;113301;225;41265;-55
2024/04/04 03:00:02;;;;;;;;;6.00;5.00;;;;;0.18;93.68;100119.35;113175;224;168976;-57
2024/04/04 03:02:42;;;;;;;;;6.00;4.00;;;;;0.23;93.72;100119.60;113359;225;40082;-58
2024/04/04 03:05:16;;;;;;;;;4.00;4.00;;;;;0.28;93.92;100117.95;113178;224;171892;-57
2024/04/04 03:07:51;;;;;;;;;4.00;3.00;;;;;0.33;94.02;100117.09;113239;227;40569;-56
2024/04/04 03:10:30;;;;;;;;;4.00;3.00;;;;;0.40;93.77;100115.48;113099;224;169233;-57
2024/04/04 03:13:09;;;;;;;;;6.00;5.00;;;;;0.41;93.75;100114.83;113263;224;40984;-58
2024/04/04 03:15:56;;;;;;;;;5.00;4.00;;;;;0.41;93.97;100119.05;113324;228;40469;-55
2024/04/04 03:18:35;;;;;;;;;5.00;3.00;;;;;0.43;93.83;100113.21;113297;228;41313;-56
2024/04/04 03:21:13;;;;;;;;;4.00;3.00;;;;;0.43;93.80;100117.71;113298;228;40113;-55
2024/04/04 03:23:51;;;;;;;;;5.00;4.00;;;;;0.42;93.79;100123.63;113129;223;169177;-56
2024/04/04 03:26:29;;;;;;;;;3.00;3.00;;;;;0.43;93.91;100122.60;113319;223;40028;-54
2024/04/04 03:29:08;;;;;;;;;7.50;5.00;;;;;0.44;93.86;100121.79;113168;227;169578;-56
2024/04/04 03:31:45;;;;;;;;;3.67;3.00;;;;;0.41;93.90;100115.52;113415;223;40347;-58
2024/04/04 03:34:19;;;;;;;;;4.00;3.00;;;;;0.36;93.91;100110.65;113214;227;170043;-55
2024/04/04 03:37:02;;;;;;;;;5.00;3.50;;;;;0.35;93.96;100115.39;113301;227;40755;-56
2024/04/04 03:39:46;;;;;;;;;6.33;3.00;;;;;0.38;93.96;100120.05;113286;224;39971;-55
2024/04/04 03:42:26;;;;;;;;;6.00;5.00;;;;;0.41;93.83;100129.75;113285;225;41695;-58
2024/04/04 03:45:05;;;;;;;;;6.00;4.00;;;;;0.38;93.88;100133.54;113262;225;39943;-55
2024/04/04 03:47:39;;;;;;;;;3.00;3.00;;;;;0.32;93.80;100140.05;113128;224;168850;-55
2024/04/04 03:50:18;;;;;;;;;3.00;2.00;;;;;0.25;93.77;100141.95;113290;224;40529;-55
2024/04/04 03:52:52;;;;;;;;;5.00;4.00;;;;;0.20;93.88;100144.16;113067;228;169258;-55
2024/04/04 03:55:31;;;;;;;;;5.00;3.50;;;;;0.21;93.74;100142.97;113278;224;39791;-55
2024/04/04 03:58:05;;;;;;;;;4.00;3.00;;;;;0.18;93.90;100145.55;113092;225;169515;-56
2024/04/04 04:00:40;;;;;;;;;4.00;3.50;;;;;0.13;93.91;100147.08;113281;227;40392;-55
2024/04/04 04:03:22;;;;;;;;;6.00;4.00;;;;;0.08;93.80;100150.45;113284;225;41114;-56
2024/04/04 04:06:03;;;;;;;;;3.00;2.00;;;;;0.04;93.72;100149.74;113071;224;169218;-56
2024/04/04 04:08:45;;;;;;;;;5.00;3.00;;;;;0.01;93.80;100150.34;113301;228;39844;-56
2024/04/04 04:11:19;;;;;;;;;3.00;2.00;;;;;-0.00;93.86;100150.09;113147;225;169462;-56
2024/04/04 04:13:58;;;;;;;;;2.00;2.00;;;;;-0.03;93.95;100146.20;113276;228;40064;-57
2024/04/04 04:16:34;;;;;;;;;4.00;3.00;;;;;0.00;93.95;100145.84;113101;228;169798;-58
2024/04/04 04:19:13;;;;;;;;;3.00;2.00;;;;;0.05;93.93;100144.37;113375;228;41292;-57
2024/04/04 04:21:57;;;;;;;;;2.50;2.00;;;;;0.06;93.90;100145.51;113313;225;41998;-58
2024/04/04 04:24:41;;;;;;;;;4.00;3.00;;;;;0.11;94.01;100147.23;113315;228;39895;-56
2024/04/04 04:27:23;;;;;;;;;3.00;2.00;;;;;0.14;94.15;100150.29;113274;225;40225;-56
2024/04/04 04:30:07;;;;;;;;;3.33;3.00;;;;;0.22;94.33;100154.39;113121;227;169419;-56
2024/04/04 04:32:48;;;;;;;;;2.00;2.00;;;;;0.28;94.49;100149.59;113295;227;40216;-56
2024/04/04 04:35:31;;;;;;;;;4.00;3.00;;;;;0.41;94.59;100150.98;113090;223;169499;-57
2024/04/04 04:38:14;;;;;;;;;5.00;4.00;;;;;0.56;94.58;100148.48;113214;227;40006;-57
2024/04/04 04:40:51;;;;;;;;;2.00;2.00;;;;;0.77;94.61;100146.68;113119;223;169420;-58
2024/04/04 04:43:30;;;;;;;;;3.00;2.00;;;;;1.02;94.79;100148.10;113300;225;40187;-57
2024/04/04 04:46:11;;;;;;;;;3.00;2.33;;;;;1.38;94.93;100150.73;113094;225;169818;-56
2024/04/04 04:48:48;;;;;;;;;5.00;4.00;;;;;2.11;95.18;100145.05;113283;223;41470;-58
2024/04/04 04:51:28;;;;;;;;;4.00;3.00;;;;;3.08;94.94;100145.36;113379;223;40119;-58
2024/04/04 04:54:11;;;;;;;;;5.00;5.00;;;;;3.20;94.12;100148.13;113152;227;169178;-56
2024/04/04 04:56:47;;;;;;;;;4.00;4.00;;;;;3.01;93.48;100147.36;113342;225;40222;-56
2024/04/04 04:59:24;;;;;;;;;4.00;4.00;;;;;2.97;93.23;100153.05;113185;227;168610;-56
2024/04/04 05:02:02;;;;;;;;;5.00;4.00;;;;;2.84;93.30;100150.37;113367;223;40013;-57
2024/04/04 05:04:46;;;;;;;;;6.00;4.00;;;;;2.83;93.01;100149.56;113154;223;168992;-56
2024/04/04 05:07:27;;;;;;;;;3.00;2.00;;;;;2.86;92.57;100150.42;113250;225;42300;-56
2024/04/04 05:10:06;;;;;;;;;4.00;3.00;;;;;2.84;92.81;100156.13;113098;225;168805;-57
2024/04/04 05:12:44;;;;;;;;;4.00;3.00;;;;;2.83;92.80;100158.29;113272;223;40719;-57
2024/04/04 05:15:21;;;;;;;;;5.67;4.67;;;;;2.85;92.86;100157.45;113276;223;40384;-56
2024/04/04 05:17:59;;;;;;;;;8.00;5.00;;;;;2.99;92.59;100152.66;113119;223;169279;-56
2024/04/04 05:20:38;;;;;;;;;3.00;3.00;;;;;3.24;92.62;100154.18;113274;227;41367;-58
2024/04/04 05:23:16;;;;;;;;;7.00;6.00;;;;;3.46;92.56;100151.27;113169;224;171192;-57
2024/04/04 05:25:55;;;;;;;;;4.00;3.00;;;;;3.71;92.18;100148.57;113293;224;39872;-58
2024/04/04 05:28:34;;;;;;;;;5.50;5.00;;;;;3.84;91.77;100156.04;113171;227;169662;-55
2024/04/04 05:31:16;;;;;;;;;6.00;5.00;;;;;3.93;91.24;100151.75;113375;227;40282;-54
2024/04/04 05:33:53;;;;;;;;;6.00;4.00;;;;;3.95;90.74;100154.17;113332;223;39995;-55
2024/04/04 05:36:28;;;;;;;;;8.00;6.00;;;;;3.97;90.36;100154.49;113290;224;41030;-54
2024/04/04 05:39:07;;;;;;;;;9.00;6.00;;;;;3.94;90.42;100158.42;113403;228;42487;-56
2024/04/04 05:41:49;;;;;;;;;9.00;6.00;;;;;3.94;90.17;100160.15;113156;224;169684;-55
2024/04/04 05:44:26;;;;;;;;;7.00;6.00;;;;;3.97;89.72;100167.55;113334;227;40630;-57
2024/04/04 05:47:08;;;;;;;;;6.50;5.50;;;;;3.99;89.96;100168.05;113094;224;169819;-57
2024/04/04 05:49:54;;;;;;;;;8.00;7.00;;;;;4.04;89.61;100166.23;113335;227;40060;-55
2024/04/04 05:52:36;;;;;;;;;6.50;5.50;;;;;4.10;89.76;100169.02;113059;228;170663;-55
2024/04/04 05:55:22;;;;;;;;;6.00;4.00;;;;;4.15;89.54;100168.65;113298;225;40679;-57
2024/04/04 05:58:02;;;;;;;;;6.00;5.00;;;;;4.20;89.41;100165.55;113252;228;40765;-57
2024/04/04 06:00:44;;;;;;;;;6.00;4.00;;;;;4.23;89.10;100162.30;113248;225;41894;-55
2024/04/04 06:03:30;;;;;;;;;8.67;7.33;;;;;4.37;88.74;100164.05;113233;228;40551;-55
2024/04/04 06:06:06;;;;;;;;;9.00;6.00;;;;;4.48;88.43;100153.98;113127;224;169283;-56
2024/04/04 06:08:41;;;;;;;;;9.00;7.00;;;;;4.57;87.65;100153.73;113267;224;40382;-55
2024/04/04 06:11:15;;;;;;;;;6.00;5.00;;;;;4.57;87.29;100155.33;113163;223;168974;-55
2024/04/04 06:13:58;;;;;;;;;8.50;7.00;;;;;4.61;86.66;100156.17;113313;225;41644;-56
2024/04/04 06:16:35;;;;;;;;;6.00;5.00;;;;;4.62;86.08;100152.91;113109;225;168911;-56
2024/04/04 06:19:09;;;;;;;;;8.67;7.00;;;;;4.64;86.10;100152.78;113329;223;40376;-55
2024/04/04 06:21:44;;;;;;;;;7.00;6.00;;;;;4.69;86.05;100157.45;113303;227;39911;-55
2024/04/04 06:24:18;;;;;;;;;7.00;6.00;;;;;4.75;85.84;100156.36;113141;224;168600;-57
2024/04/04 06:26:58;;;;;;;;;9.00;7.00;;;;;4.78;85.84;100154.05;113298;228;41058;-57
2024/04/04 06:29:36;;;;;;;;;8.00;6.00;;;;;4.78;84.76;100156.88;113154;227;168724;-54
2024/04/04 06:32:10;;;;;;;;;9.00;7.00;;;;;4.77;84.33;100155.61;113329;223;41879;-54
2024/04/04 06:34:49;;;;;;;;;6.00;5.00;;;;;4.78;84.04;100155.84;113186;227;169221;-58
2024/04/04 06:37:26;;;;;;;;;6.00;5.00;;;;;4.87;84.42;100156.30;113335;227;40695;-54
2024/04/04 06:40:07;;;;;;;;;5.50;5.00;;;;;4.88;83.91;100158.01;113312;223;39744;-55
2024/04/04 06:42:45;;;;;;;;;5.33;4.00;;;;;4.94;83.78;100161.52;113281;225;40580;-55
2024/04/04 06:45:27;;;;;;;;;4.00;4.00;;;;;5.05;83.76;100158.91;112612;227;842767;-55
2024/04/04 06:48:05;;;;;;;;;5.00;4.00;;;;;5.14;83.58;100159.66;113149;223;169112;-54
2024/04/04 06:50:39;;;;;;;;;5.00;4.00;;;;;5.22;82.74;100159.21;113260;227;41075;-55
2024/04/04 06:53:20;;;;;;;;;10.50;7.50;;;;;5.30;82.58;100160.85;113136;223;169681;-54
2024/04/04 06:55:57;;;;;;;;;8.00;6.00;;;;;5.42;82.34;100160.84;113400;223;41769;-56
2024/04/04 06:58:36;;;;;;;;;7.00;5.00;;;;;5.49;81.93;100159.55;113136;223;170146;-55
2024/04/04 07:01:11;;;;;;;;;7.00;6.00;;;;;5.53;81.47;100158.95;113099;225;42550;-55
2024/04/04 07:03:54;;;;;;;;;6.00;4.00;;;;;5.58;81.20;100159.34;113276;225;40182;-55
2024/04/04 07:06:39;;;;;;;;;9.00;6.00;;;;;5.63;80.81;100166.08;113101;223;168750;-56
2024/04/04 07:09:21;;;;;;;;;11.00;8.00;;;;;5.70;80.84;100170.33;113333;227;41012;-56
2024/04/04 07:12:02;;;;;;;;;10.00;7.00;;;;;5.71;80.70;100169.85;113083;224;169158;-56
2024/04/04 07:14:39;;;;;;;;;6.00;5.00;;;;;5.70;80.48;100169.66;113277;228;40442;-55
2024/04/04 07:17:17;;;;;;;;;8.00;6.00;;;;;5.74;80.36;100171.55;113099;224;169013;-55
2024/04/04 07:19:57;;;;;;;;;6.50;6.00;;;;;5.77;80.24;100166.92;113307;228;41131;-55
2024/04/04 07:22:36;;;;;;;;;6.00;6.00;;;;;5.84;80.19;100165.08;113057;228;168575;-56
2024/04/04 07:25:16;;;;;;;;;8.00;6.00;;;;;5.94;79.62;100166.19;113294;228;40270;-54
2024/04/04 07:27:53;;;;;;;;;7.00;6.00;;;;;6.02;79.67;100169.05;113275;228;40590;-58
2024/04/04 07:30:30;;;;;;;;;9.00;6.50;;;;;6.03;79.27;100168.91;113081;224;168500;-55
2024/04/04 07:33:05;;;;;;;;;10.00;8.00;;;;;6.03;79.11;100168.95;113245;225;40163;-54
2024/04/04 07:35:46;;;;;;;;;8.25;7.00;;;;;6.00;79.11;100169.77;113090;224;169293;-57
2024/04/04 07:38:32;;;;;;;;;9.00;7.00;;;;;6.01;79.30;100172.70;113298;228;40219;-57
2024/04/04 07:41:09;;;;;;;;;9.00;8.00;;;;;5.98;79.28;100165.19;113147;224;168975;-58
2024/04/04 07:43:47;;;;;;;;;9.00;7.00;;;;;6.03;79.35;100175.55;113344;224;43021;-55
2024/04/04 07:46:26;;;;;;;;;9.00;8.00;;;;;6.04;79.33;100174.34;113084;228;169176;-55
2024/04/04 07:49:03;;;;;;;;;6.00;5.00;;;;;6.10;79.23;100175.70;113343;225;40250;-56
2024/04/04 07:51:41;;;;;;;;;8.00;7.00;;;;;6.15;78.82;100177.21;113304;228;40292;-56
2024/04/04 07:54:18;;;;;;;;;5.00;4.00;;;;;6.19;79.07;100180.19;113126;224;169612;-56
2024/04/04 07:56:55;;;;;;;;;7.00;6.00;;;;;6.21;79.07;100175.64;113314;225;41722;-56
2024/04/04 07:59:29;;;;;;;;;13.00;10.00;;;;;6.31;79.22;100171.71;113067;225;169476;-56
2024/04/04 08:02:07;;;;;;;;;12.00;10.00;;;;;6.43;79.18;100171.29;113274;228;40350;-57
2024/04/04 08:04:49;;;;;;;;;12.00;10.00;;;;;6.63;79.58;100167.07;113072;224;169895;-56
2024/04/04 08:07:23;;;;;;;;;9.50;8.00;;;;;6.86;79.70;100163.64;113332;225;40045;-56
2024/04/04 08:10:06;;;;;;;;;9.50;9.00;;;;;7.01;79.70;100166.85;113310;225;40724;-57
2024/04/04 08:12:55;;;;;;;;;15.00;11.00;;;;;7.20;79.58;100165.66;113288;228;40858;-58
2024/04/04 08:15:34;;;;;;;;;8.50;7.50;;;;;7.34;78.83;100165.88;113341;225;42386;-59
2024/04/04 08:18:10;;;;;;;;;14.00;11.00;;;;;7.30;78.69;100163.04;113152;227;169089;-64
2024/04/04 08:20:48;;;;;;;;;15.00;10.00;;;;;7.24;78.65;100165.00;113339;223;40363;-56
2024/04/04 08:23:25;;;;;;;;;16.00;13.00;;;;;7.13;78.66;100166.92;113102;227;169438;-55
2024/04/04 08:26:02;;;;;;;;;9.00;8.00;;;;;7.07;78.61;100165.30;113304;227;40104;-56
2024/04/04 08:28:37;;;;;;;;;9.00;7.00;;;;;7.05;78.83;100162.89;113131;227;169758;-55
2024/04/04 08:31:13;;;;;;;;;12.00;9.00;;;;;7.12;78.97;100159.94;113266;227;40311;-55
2024/04/04 08:33:56;;;;;;;;;11.00;9.00;;;;;7.24;79.14;100155.20;113357;223;40168;-57
2024/04/04 08:36:40;;;;;;;;;12.00;9.00;;;;;7.35;79.24;100153.00;113214;227;41843;-58
2024/04/04 08:39:24;;;;;;;;;9.00;7.00;;;;;7.43;78.78;100147.09;113297;223;40462;-58
2024/04/04 08:42:03;;;;;;;;;12.00;11.50;;;;;7.48;78.38;100143.30;113090;223;169788;-56
2024/04/04 08:44:37;;;;;;;;;11.00;9.00;;;;;7.57;78.71;100141.64;113303;223;41339;-54
2024/04/04 08:47:19;;;;;;;;;10.00;9.00;;;;;7.72;78.08;100146.16;113088;223;169905;-54
2024/04/04 08:49:58;;;;;;;;;12.50;10.50;;;;;7.84;77.64;100144.11;113277;225;40319;-55
2024/04/04 08:52:34;;;;;;;;;13.00;11.00;;;;;7.88;77.93;100151.17;113121;228;170239;-55
2024/04/04 08:55:09;;;;;;;;;17.50;12.00;;;;;7.87;77.82;100153.77;113335;224;41012;-58
2024/04/04 08:57:54;;;;;;;;;12.50;11.00;;;;;7.84;77.65;100152.47;113278;228;39662;-58
2024/04/04 09:00:34;;;;;;;;;15.00;11.00;;;;;7.74;77.37;100154.14;113160;228;168916;-57
2024/04/04 09:03:09;;;;;;;;;16.00;13.00;;;;;7.68;77.75;100154.39;113356;225;40295;-58
2024/04/04 09:05:50;;;;;;;;;14.00;12.00;;;;;7.66;77.86;100157.78;113156;224;169367;-56
2024/04/04 09:08:32;;;;;;;;;10.00;8.00;;;;;7.68;77.78;100155.76;113348;225;41102;-56
2024/04/04 09:11:07;;;;;;;;;17.50;13.00;;;;;7.80;78.22;100157.98;113075;228;170180;-57
2024/04/04 09:13:47;;;;;;;;;12.50;10.00;;;;;7.88;78.09;100148.44;113300;224;42065;-56
2024/04/04 09:16:29;;;;;;;;;15.50;12.00;;;;;8.02;78.26;100150.38;113069;228;169342;-56
2024/04/04 09:19:21;;;;;;;;;19.50;14.50;;;;;8.20;78.17;100142.98;113244;224;41443;-58
2024/04/04 09:21:59;;;;;;;;;13.00;10.00;;;;;8.34;77.81;100143.11;113277;228;40182;-58
2024/04/04 09:24:37;;;;;;;;;17.00;13.00;;;;;8.51;77.61;100140.92;113234;225;42078;-55
2024/04/04 09:27:23;;;;;;;;;16.00;11.00;;;;;8.63;77.79;100139.83;113333;225;41159;-56
2024/04/04 09:29:59;;;;;;;;;17.00;14.00;;;;;8.78;77.84;100137.33;113115;227;170234;-57
2024/04/04 09:32:38;;;;;;;;;13.00;11.00;;;;;8.91;77.29;100132.70;113355;228;40561;-58
2024/04/04 09:35:14;;;;;;;;;12.50;11.00;;;;;8.99;77.41;100134.84;113182;228;169455;-55
2024/04/04 09:37:55;;;;;;;;;16.00;13.00;;;;;9.02;77.44;100136.35;113313;228;40629;-54
2024/04/04 09:40:36;;;;;;;;;18.00;15.00;;;;;9.12;77.46;100131.02;113184;225;169593;-57
2024/04/04 09:43:15;;;;;;;;;15.00;12.00;;;;;9.26;77.38;100132.66;113315;225;40895;-56
2024/04/04 09:45:52;;;;;;;;;19.00;16.00;;;;;9.39;77.16;100132.04;113307;225;41493;-57
2024/04/04 09:48:28;;;;;;;;;18.67;14.00;;;;;9.50;77.15;100133.16;113115;227;170129;-59
2024/04/04 09:51:08;;;;;;;;;15.00;13.00;;;;;9.55;77.02;100133.06;113305;225;41922;-58
2024/04/04 09:53:45;;;;;;;;;18.00;15.00;;;;;9.65;77.12;100129.54;113100;224;169553;-55
2024/04/04 09:56:29;;;;;;;;;17.50;15.00;;;;;9.70;76.73;100118.59;113268;225;41165;-55
2024/04/04 09:59:04;;;;;;;;;16.00;14.00;;;;;9.71;76.58;100109.77;113110;224;169685;-59
2024/04/04 10:01:45;;;;;;;;;18.00;15.00;;;;;9.75;76.75;100105.30;113310;225;40324;-56
2024/04/04 10:04:35;;;;;;;;;18.00;14.00;;;;;9.91;76.90;100110.48;113155;225;169769;-55
2024/04/04 10:07:27;;;;;;;;;22.00;18.00;;;;;10.04;76.37;100114.23;113288;224;41167;-55
2024/04/04 10:10:28;;;;;;;;;22.00;17.50;;;;;10.15;76.44;100117.24;113300;225;39758;-58
2024/04/04 10:13:15;;;;;;;;;16.00;12.00;;;;;10.39;76.45;100122.64;113443;225;41271;-59
2024/04/04 10:15:52;;;;;;;;;22.00;17.00;;;;;10.46;76.24;100122.08;113317;228;40700;-57
2024/04/04 10:18:30;;;;;;;;;20.00;15.00;;;;;10.68;76.26;100124.48;113212;227;170759;-57
2024/04/04 10:21:10;;;;;;;;;22.00;18.00;;;;;10.98;75.78;100121.62;113312;227;40557;-57
2024/04/04 10:23:53;;;;;;;;;22.00;18.00;;;;;11.18;75.36;100120.15;113113;227;170532;-55
2024/04/04 10:26:34;;;;;;;;;22.67;17.00;;;;;11.33;74.12;100120.68;113290;225;40903;-54
2024/04/04 10:29:16;;;;;;;;;21.00;17.00;;;;;11.37;74.51;100120.73;113103;224;169546;-55
2024/04/04 10:31:53;;;;;;;;;25.00;20.00;;;;;11.60;74.57;100117.76;113278;228;40541;-54
2024/04/04 10:34:26;;;;;;;;;25.75;19.00;;;;;11.78;73.84;100113.11;113119;228;170140;-57
2024/04/04 10:37:08;;;;;;;;;25.00;19.00;;;;;11.94;74.11;100111.60;113309;228;40823;-55
2024/04/04 10:39:53;;;;;;;;;23.50;17.50;;;;;12.10;73.30;100109.51;113350;225;41500;-57
2024/04/04 10:42:35;;;;;;;;;23.00;18.00;;;;;12.13;72.99;100109.88;113125;224;169981;-56
2024/04/04 10:45:11;;;;;;;;;19.00;15.00;;;;;12.18;72.85;100106.64;113350;225;41754;-57
2024/04/04 10:47:46;;;;;;;;;22.00;19.00;;;;;12.18;72.82;100106.80;113141;225;169831;-55
2024/04/04 10:50:20;;;;;;;;;23.00;18.00;;;;;12.22;72.80;100101.45;113296;227;40128;-56
2024/04/04 10:52:59;;;;;;;;;25.00;19.00;;;;;12.32;72.53;100101.95;113169;225;170541;-57
2024/04/04 10:55:38;;;;;;;;;21.00;17.00;;;;;12.41;72.61;100096.48;113311;227;40301;-56
2024/04/04 10:58:20;;;;;;;;;22.00;19.00;;;;;12.65;72.51;100098.52;113287;227;41300;-56
2024/04/04 11:01:01;;;;;;;;;21.00;17.00;;;;;12.87;72.50;100099.02;113127;226;40361;-55
2024/04/04 11:03:42;;;;;;;;;25.50;18.50;;;;;13.12;72.46;100099.79;113308;227;40822;-55
2024/04/04 11:06:30;;;;;;;;;24.00;19.00;;;;;13.23;72.26;100094.36;113059;228;169895;-56
2024/04/04 11:09:15;;;;;;;;;28.00;20.00;;;;;13.34;71.72;100093.16;113297;225;40845;-57
2024/04/04 11:11:54;;;;;;;;;25.00;20.00;;;;;13.54;71.91;100089.28;113150;228;169394;-58
2024/04/04 11:14:33;;;;;;;;;21.00;17.00;;;;;13.79;72.02;100086.06;113356;228;40010;-56
2024/04/04 11:17:08;;;;;;;;;21.00;18.00;;;;;13.81;71.14;100085.09;113104;224;169873;-56
2024/04/04 11:19:48;;;;;;;;;22.00;16.00;;;;;13.83;70.99;100082.07;113365;224;40289;-55
2024/04/04 11:22:28;;;;;;;;;22.00;18.00;;;;;13.76;70.82;100070.59;113204;224;171158;-56
2024/04/04 11:25:04;;;;;;;;;24.00;18.00;;;;;13.84;70.79;100071.84;113379;225;40500;-56
2024/04/04 11:27:42;;;;;;;;;24.00;20.00;;;;;13.80;70.29;100069.14;113360;225;40460;-56
2024/04/04 11:30:19;;;;;;;;;24.00;19.00;;;;;13.73;70.54;100068.67;113122;224;169883;-57
2024/04/04 11:33:00;;;;;;;;;19.50;16.00;;;;;13.82;70.27;100066.71;113322;225;39930;-58
2024/04/04 11:35:39;;;;;;;;;20.00;17.00;;;;;13.74;69.66;100068.92;113082;225;170508;-54
2024/04/04 11:38:14;;;;;;;;;;;;;;;13.80;70.12;100069.10;113297;227;40242;-55
2024/04/04 11:40:49;;;;;;;;;30.00;24.00;;;;;13.92;70.38;100069.18;113118;227;149315;-54
2024/04/04 11:43:28;;;;;;;;;27.00;21.00;;;;;14.00;69.78;100072.67;113262;228;40770;-55
2024/04/04 11:46:03;;;;;;;;;20.00;17.00;;;;;13.95;69.55;100068.45;113267;228;43706;-58
2024/04/04 11:48:38;;;;;;;;;22.00;18.00;;;;;13.97;69.57;100062.18;113108;228;169737;-58
2024/04/04 11:51:13;;;;;;;;;29.00;23.00;;;;;14.02;69.60;100064.77;113306;228;40192;-55
2024/04/04 11:53:53;;;;;;;;;26.25;21.50;;;;;14.00;69.20;100062.95;113169;224;169347;-55
2024/04/04 11:56:35;;;;;;;;;19.50;17.00;;;;;14.02;69.57;100062.31;113364;225;40800;-54
2024/04/04 11:59:17;;;;;;;;;20.50;17.00;;;;;14.08;69.47;100064.10;113113;225;170146;-56
2024/04/04 12:01:56;;;;;;;;;22.00;17.50;;;;;14.17;69.40;100054.45;113299;223;40157;-56
2024/04/04 12:04:44;;;;;;;;;18.75;16.00;;;;;14.19;69.24;100052.61;113176;223;171002;-55
2024/04/04 12:07:31;;;;;;;;;18.00;15.00;;;;;14.26;69.39;100049.34;113265;228;41485;-55
2024/04/04 12:10:12;;;;;;;;;18.50;16.50;;;;;14.32;69.20;100046.01;113242;224;39846;-57
2024/04/04 12:12:47;;;;;;;;;18.50;15.50;;;;;14.26;68.50;100048.71;113229;224;41214;-57
2024/04/04 12:15:22;;;;;;;;;26.00;22.00;;;;;14.18;68.90;100042.80;113313;224;39719;-57
2024/04/04 12:21:03;;;;;;;;;22.00;18.00;;;;;14.28;69.23;100044.21;113301;225;40318;-56
2024/04/04 12:23:40;;;;;;;;;17.00;14.00;;;;;14.34;69.14;100042.33;113131;225;170069;-57
2024/04/04 12:26:16;;;;;;;;;24.00;18.00;;;;;14.40;68.89;100034.54;113341;224;40116;-57